createdAt,value
2023-05-14T00:00:50.756Z,2.15
2023-05-14T00:03:17.751Z,2.25
2023-05-14T00:05:44.620Z,2.13
2023-05-14T00:08:11.369Z,1.98
2023-05-14T00:10:38.428Z,2.55
2023-05-14T00:13:05.250Z,2.75
2023-05-14T00:15:34.123Z,2.40
2023-05-14T00:18:01.280Z,2.08
2023-05-14T00:20:28.147Z,2.55
2023-05-14T00:22:54.960Z,2.92
2023-05-14T00:25:21.713Z,1.90
2023-05-14T00:27:48.477Z,2.60
2023-05-14T00:30:15.423Z,2.03
2023-05-14T00:32:42.542Z,1.90
2023-05-14T00:35:09.545Z,1.27
2023-05-14T00:37:37.230Z,2.50
2023-05-14T00:40:06.656Z,2.60
2023-05-14T00:42:33.523Z,2.30
2023-05-14T00:45:00.568Z,2.10
2023-05-14T00:47:27.896Z,2.40
2023-05-14T00:49:54.756Z,2.10
2023-05-14T00:52:22.041Z,1.88
2023-05-14T00:54:49.365Z,2.45
2023-05-14T00:57:16.661Z,2.22
2023-05-14T00:59:43.544Z,2.20
2023-05-14T01:02:11.178Z,2.20
2023-05-14T01:04:38.758Z,2.60
2023-05-14T01:07:11.570Z,2.13
2023-05-14T01:10:00.527Z,2.47
2023-05-14T01:12:33.175Z,1.83
2023-05-14T01:15:06.795Z,2.05
2023-05-14T01:17:39.070Z,1.88
2023-05-14T01:20:06.862Z,2.25
2023-05-14T01:22:33.632Z,2.70
2023-05-14T01:25:00.502Z,1.65
2023-05-14T01:27:35.447Z,1.88
2023-05-14T01:30:18.837Z,2.30
2023-05-14T01:32:50.996Z,1.80
2023-05-14T01:35:18.756Z,2.22
2023-05-14T01:40:14.333Z,1.90
2023-05-14T01:42:42.090Z,2.05
2023-05-14T01:45:09.578Z,2.08
2023-05-14T01:50:03.516Z,1.90
2023-05-14T01:52:30.356Z,1.55
2023-05-14T01:54:58.341Z,1.90
2023-05-14T01:57:25.114Z,1.80
2023-05-14T01:59:51.875Z,2.22
2023-05-14T02:02:18.660Z,2.28
2023-05-14T02:04:45.532Z,1.60
2023-05-14T02:07:12.361Z,2.40
2023-05-14T02:09:41.077Z,2.55
2023-05-14T02:12:09.155Z,2.00
2023-05-14T02:14:36.040Z,2.28
2023-05-14T02:17:03.472Z,1.58
2023-05-14T02:19:30.424Z,1.55
2023-05-14T02:24:25.591Z,1.88
2023-05-14T02:26:52.452Z,1.70
2023-05-14T02:29:19.246Z,1.90
2023-05-14T02:31:46.069Z,1.77
2023-05-14T02:34:12.849Z,1.90
2023-05-14T02:36:39.950Z,2.20
2023-05-14T02:39:06.703Z,1.98
2023-05-14T02:41:33.498Z,2.05
2023-05-14T02:44:00.285Z,1.70
2023-05-14T02:46:27.162Z,2.00
2023-05-14T02:48:55.195Z,1.70
2023-05-14T02:51:22.124Z,1.80
2023-05-14T02:53:49.019Z,1.92
2023-05-14T02:56:15.864Z,1.52
2023-05-14T02:58:42.673Z,2.35
2023-05-14T03:01:09.682Z,1.88
2023-05-14T03:03:38.110Z,2.45
2023-05-14T03:06:05.833Z,1.33
2023-05-14T03:08:32.675Z,1.88
2023-05-14T03:10:59.451Z,1.38
2023-05-14T03:13:26.256Z,2.00
2023-05-14T03:15:56.854Z,1.33
2023-05-14T03:18:23.701Z,1.70
2023-05-14T03:20:50.516Z,1.85
2023-05-14T03:23:17.362Z,2.03
2023-05-14T03:25:45.016Z,2.00
2023-05-14T03:28:11.825Z,1.63
2023-05-14T03:30:38.665Z,1.60
2023-05-14T03:33:05.785Z,2.67
2023-05-14T03:35:32.806Z,2.22
2023-05-14T03:37:59.800Z,2.13
2023-05-14T03:40:27.053Z,2.40
2023-05-14T03:42:53.911Z,1.75
2023-05-14T03:45:20.876Z,2.30
2023-05-14T03:47:47.823Z,1.98
2023-05-14T03:50:14.831Z,1.83
2023-05-14T03:52:41.702Z,1.88
2023-05-14T03:55:08.919Z,2.08
2023-05-14T03:57:36.756Z,1.67
2023-05-14T04:00:07.164Z,1.77
2023-05-14T04:02:43.836Z,1.67
2023-05-14T04:07:37.853Z,1.45
2023-05-14T04:10:05.644Z,1.20
2023-05-14T04:12:35.771Z,1.92
2023-05-14T04:15:03.784Z,1.52
2023-05-14T04:17:30.691Z,1.65
2023-05-14T04:19:57.468Z,2.30
2023-05-14T04:22:24.505Z,2.08
2023-05-14T04:24:51.970Z,1.42
2023-05-14T04:29:49.219Z,1.45
2023-05-14T04:32:16.299Z,1.40
2023-05-14T04:34:43.178Z,1.60
2023-05-14T04:37:10.023Z,1.98
2023-05-14T04:39:38.302Z,1.70
2023-05-14T04:42:06.619Z,1.70
2023-05-14T04:44:34.616Z,1.90
2023-05-14T04:47:02.089Z,2.00
2023-05-14T04:51:55.814Z,1.88
2023-05-14T04:54:22.757Z,1.73
2023-05-14T04:56:50.657Z,1.33
2023-05-14T04:59:17.502Z,1.73
2023-05-14T05:01:45.228Z,1.70
2023-05-14T05:04:12.331Z,1.73
2023-05-14T05:06:39.152Z,1.70
2023-05-14T05:09:05.937Z,1.95
2023-05-14T05:11:32.709Z,2.15
2023-05-14T05:13:59.466Z,1.65
2023-05-14T05:16:26.332Z,1.42
2023-05-14T05:18:53.240Z,1.90
2023-05-14T05:21:20.465Z,1.50
2023-05-14T05:23:47.257Z,2.20
2023-05-14T05:26:14.039Z,1.90
2023-05-14T05:28:40.840Z,2.25
2023-05-14T05:31:07.992Z,1.98
2023-05-14T05:33:35.140Z,1.92
2023-05-14T05:36:02.035Z,1.88
2023-05-14T05:38:28.844Z,1.35
2023-05-14T05:40:55.683Z,2.00
2023-05-14T05:43:22.663Z,1.73
2023-05-14T05:45:49.462Z,1.95
2023-05-14T05:48:16.472Z,2.53
2023-05-14T05:50:44.728Z,2.22
2023-05-14T05:53:12.377Z,2.47
2023-05-14T05:55:40.751Z,2.17
2023-05-14T05:58:07.552Z,2.45
2023-05-14T06:00:34.341Z,2.35
2023-05-14T06:03:01.333Z,2.08
2023-05-14T06:05:28.325Z,2.13
2023-05-14T06:07:55.146Z,2.40
2023-05-14T06:10:22.329Z,1.92
2023-05-14T06:12:49.281Z,2.53
2023-05-14T06:15:16.065Z,2.70
2023-05-14T06:17:42.892Z,2.53
2023-05-14T06:20:10.109Z,2.15
2023-05-14T06:22:37.614Z,2.90
2023-05-14T06:25:04.924Z,2.78
2023-05-14T06:27:31.737Z,1.67
2023-05-14T06:29:58.531Z,2.03
2023-05-14T06:32:25.421Z,2.40
2023-05-14T06:34:52.228Z,2.47
2023-05-14T06:37:19.029Z,2.13
2023-05-14T06:39:50.049Z,2.22
2023-05-14T06:42:17.390Z,1.70
2023-05-14T06:44:45.151Z,1.83
2023-05-14T06:47:11.985Z,2.00
2023-05-14T06:49:39.335Z,1.45
2023-05-14T06:54:33.122Z,1.98
2023-05-14T06:56:59.903Z,1.63
2023-05-14T06:59:26.733Z,2.10
2023-05-14T07:01:53.585Z,1.80
2023-05-14T07:04:20.615Z,1.52
2023-05-14T07:06:47.488Z,1.38
2023-05-14T07:09:16.012Z,1.90
2023-05-14T07:11:43.031Z,1.58
2023-05-14T07:14:09.920Z,1.80
2023-05-14T07:16:37.138Z,1.92
2023-05-14T07:19:04.194Z,2.08
2023-05-14T07:21:31.749Z,2.35
2023-05-14T07:23:58.619Z,1.33
2023-05-14T07:26:26.249Z,1.80
2023-05-14T07:28:53.137Z,1.40
2023-05-14T07:31:19.960Z,1.17
2023-05-14T07:33:46.750Z,1.40
2023-05-14T07:36:13.696Z,1.42
2023-05-14T07:38:40.562Z,1.08
2023-05-14T07:41:07.734Z,1.27
2023-05-14T07:43:34.555Z,1.40
2023-05-14T07:46:01.310Z,1.20
2023-05-14T07:48:28.192Z,1.50
2023-05-14T07:50:55.613Z,1.20
2023-05-14T07:53:23.431Z,1.10
2023-05-14T07:55:50.383Z,1.13
2023-05-14T07:58:17.256Z,0.95
2023-05-14T08:00:44.131Z,0.93
2023-05-14T08:03:11.007Z,0.85
2023-05-14T08:05:37.817Z,0.90
2023-05-14T08:08:04.785Z,0.95
2023-05-14T08:10:31.574Z,0.75
2023-05-14T08:12:58.393Z,0.90
2023-05-14T08:15:27.547Z,0.85
2023-05-14T08:17:54.941Z,0.75
2023-05-14T08:20:22.599Z,0.70
2023-05-14T08:22:49.536Z,0.77
2023-05-14T08:25:16.415Z,0.82
2023-05-14T08:27:43.183Z,0.95
2023-05-14T08:30:10.341Z,0.82
2023-05-14T08:32:38.354Z,0.80
2023-05-14T08:35:05.659Z,0.80
2023-05-14T08:37:32.560Z,0.98
2023-05-14T08:39:59.476Z,0.80
2023-05-14T08:42:28.422Z,0.60
2023-05-14T08:45:04.579Z,0.80
2023-05-14T08:47:32.079Z,0.60
2023-05-14T08:50:06.372Z,0.60
2023-05-14T08:52:34.444Z,0.65
2023-05-14T08:55:05.440Z,0.70
2023-05-14T08:57:34.538Z,0.70
2023-05-14T09:00:06.062Z,0.60
2023-05-14T09:02:33.593Z,0.70
2023-05-14T09:05:01.797Z,0.50
2023-05-14T09:07:28.789Z,0.55
2023-05-14T09:09:56.003Z,0.50
2023-05-14T09:12:22.904Z,0.57
2023-05-14T09:14:50.639Z,0.60
2023-05-14T09:17:18.540Z,0.68
2023-05-14T09:19:49.353Z,0.50
2023-05-14T09:22:18.109Z,0.60
2023-05-14T09:24:45.679Z,0.47
2023-05-14T09:27:22.193Z,0.60
2023-05-14T09:29:48.979Z,0.75
2023-05-14T09:32:15.864Z,0.55
2023-05-14T09:37:09.993Z,0.50
2023-05-14T09:39:38.001Z,0.55
2023-05-14T09:42:05.661Z,0.50
2023-05-14T09:44:32.502Z,0.50
2023-05-14T09:46:59.458Z,0.60
2023-05-14T09:49:26.295Z,0.40
2023-05-14T09:51:53.359Z,0.60
2023-05-14T09:54:20.256Z,0.40
2023-05-14T09:56:47.048Z,0.60
2023-05-14T09:59:13.944Z,0.60
2023-05-14T10:04:10.972Z,0.60
2023-05-14T10:06:39.380Z,0.60
2023-05-14T10:09:12.928Z,0.60
2023-05-14T10:11:43.691Z,0.60
2023-05-14T10:14:29.246Z,0.50
2023-05-14T10:16:58.834Z,0.43
2023-05-14T10:19:27.945Z,0.60
2023-05-14T10:22:04.092Z,0.50
2023-05-14T10:24:32.341Z,0.75
2023-05-14T10:26:59.262Z,0.90
2023-05-14T10:29:34.862Z,0.77
2023-05-14T10:32:07.159Z,0.90
2023-05-14T10:34:40.875Z,0.73
2023-05-14T10:37:21.124Z,0.65
2023-05-14T10:40:01.513Z,0.65
2023-05-14T10:42:40.414Z,0.82
2023-05-14T10:45:09.068Z,0.60
2023-05-14T10:47:37.168Z,0.63
2023-05-14T10:50:06.290Z,0.60
2023-05-14T10:52:34.982Z,0.70
2023-05-14T10:55:04.158Z,0.50
2023-05-14T10:57:32.269Z,0.50
2023-05-14T11:00:02.741Z,0.77
2023-05-14T11:02:37.212Z,0.60
2023-05-14T11:05:04.307Z,0.52
2023-05-14T11:07:35.206Z,0.47
2023-05-14T11:10:06.031Z,13.30
2023-05-14T11:12:37.803Z,6.65
2023-05-14T11:15:09.229Z,5.70
2023-05-14T11:17:37.285Z,3.42
2023-05-14T11:20:08.036Z,0.80
2023-05-14T11:22:35.803Z,0.68
2023-05-14T11:25:03.108Z,0.60
2023-05-14T11:27:31.035Z,0.57
2023-05-14T11:29:58.089Z,0.65
2023-05-14T11:32:25.773Z,0.52
2023-05-14T11:34:52.962Z,0.50
2023-05-14T11:37:20.225Z,0.93
2023-05-14T11:39:54.985Z,1.65
2023-05-14T11:42:22.398Z,0.75
2023-05-14T11:44:51.691Z,2.17
2023-05-14T11:47:20.271Z,1.05
2023-05-14T11:49:47.829Z,0.60
2023-05-14T11:52:16.291Z,0.30
2023-05-14T11:54:44.235Z,0.40
2023-05-14T11:57:16.655Z,0.40
2023-05-14T11:59:43.827Z,0.60
2023-05-14T12:02:18.255Z,0.50
2023-05-14T12:04:49.387Z,0.50
2023-05-14T12:07:16.375Z,0.70
2023-05-14T12:12:19.167Z,0.55
2023-05-14T12:14:46.710Z,0.60
2023-05-14T12:17:22.764Z,0.50
2023-05-14T12:19:51.647Z,0.50
2023-05-14T12:22:20.921Z,0.50
2023-05-14T12:24:59.327Z,0.47
2023-05-14T12:27:27.646Z,0.40
2023-05-14T12:30:20.650Z,0.60
2023-05-14T12:32:51.483Z,0.40
2023-05-14T12:35:21.058Z,0.52
2023-05-14T12:37:47.896Z,0.50
2023-05-14T12:40:14.775Z,0.68
2023-05-14T12:45:08.898Z,0.47
2023-05-14T12:47:36.906Z,0.50
2023-05-14T12:50:04.726Z,0.60
2023-05-14T12:55:01.791Z,0.60
2023-05-14T12:59:57.369Z,0.40
2023-05-14T13:02:24.177Z,0.40
2023-05-14T13:04:50.925Z,0.45
2023-05-14T13:07:17.813Z,0.57
2023-05-14T13:09:44.589Z,0.38
2023-05-14T13:12:11.451Z,0.40
2023-05-14T13:14:38.219Z,0.50
2023-05-14T13:17:05.406Z,0.40
2023-05-14T13:19:32.258Z,0.60
2023-05-14T13:21:59.076Z,0.40
2023-05-14T13:24:26.102Z,0.30
2023-05-14T13:26:52.955Z,0.30
2023-05-14T13:29:19.711Z,0.30
2023-05-14T13:31:46.497Z,0.50
2023-05-14T13:34:13.382Z,0.40
2023-05-14T13:39:10.737Z,0.50
2023-05-14T13:41:38.232Z,0.40
2023-05-14T13:44:05.260Z,0.38
2023-05-14T13:48:58.868Z,0.30
2023-05-14T13:51:25.638Z,0.60
2023-05-14T13:56:24.090Z,0.43
2023-05-14T13:58:50.926Z,0.50
2023-05-14T14:01:17.860Z,0.52
2023-05-14T14:06:11.671Z,0.50
2023-05-14T14:08:38.475Z,0.40
2023-05-14T14:11:05.387Z,0.40
2023-05-14T14:15:58.973Z,0.47
2023-05-14T14:18:25.769Z,0.40
2023-05-14T14:20:52.609Z,0.60
2023-05-14T14:23:19.624Z,0.45
2023-05-14T14:25:46.553Z,0.50
2023-05-14T14:28:13.683Z,0.40
2023-05-14T14:30:40.960Z,0.60
2023-05-14T14:33:07.850Z,0.52
2023-05-14T14:35:35.711Z,0.40
2023-05-14T14:38:02.642Z,0.40
2023-05-14T14:42:56.552Z,0.40
2023-05-14T14:45:23.699Z,0.43
2023-05-14T14:47:50.792Z,0.40
2023-05-14T14:52:46.021Z,0.50
2023-05-14T14:55:13.061Z,0.43
2023-05-14T14:57:39.957Z,0.52
2023-05-14T15:00:07.366Z,0.52
2023-05-14T15:02:34.956Z,0.40
2023-05-14T15:05:01.929Z,0.50
2023-05-14T15:07:32.686Z,0.50
2023-05-14T15:09:59.550Z,0.45
2023-05-14T15:12:26.340Z,0.60
2023-05-14T15:14:53.129Z,0.50
2023-05-14T15:17:19.960Z,0.70
2023-05-14T15:19:47.508Z,0.35
2023-05-14T15:22:14.390Z,0.50
2023-05-14T15:24:41.206Z,0.50
2023-05-14T15:27:07.990Z,0.50
2023-05-14T15:29:34.791Z,0.45
2023-05-14T15:32:02.195Z,0.40
2023-05-14T15:34:29.019Z,0.30
2023-05-14T15:36:55.863Z,0.43
2023-05-14T15:39:22.617Z,0.40
2023-05-14T15:41:49.391Z,0.45
2023-05-14T15:44:16.196Z,0.57
2023-05-14T15:46:43.100Z,0.57
2023-05-14T15:51:36.781Z,0.30
2023-05-14T15:54:03.997Z,0.47
2023-05-14T15:56:31.196Z,0.40
2023-05-14T15:58:58.050Z,0.38
2023-05-14T16:01:24.842Z,0.43
2023-05-14T16:03:52.771Z,0.60
2023-05-14T16:06:19.650Z,0.50
2023-05-14T16:08:46.404Z,0.40
2023-05-14T16:11:13.223Z,0.40
2023-05-14T16:13:41.451Z,0.40
2023-05-14T16:16:08.465Z,0.40
2023-05-14T16:30:49.317Z,0.57
2023-05-14T16:33:16.324Z,0.40
2023-05-14T16:35:43.306Z,0.55
2023-05-14T16:38:10.160Z,0.70
2023-05-14T16:40:36.983Z,0.47
2023-05-14T16:43:03.908Z,0.60
2023-05-14T16:45:32.584Z,0.50
2023-05-14T16:48:00.884Z,0.50
2023-05-14T16:50:28.001Z,0.80
2023-05-14T16:57:48.728Z,0.52
2023-05-14T17:00:15.819Z,0.50
2023-05-14T17:10:03.969Z,0.60
2023-05-14T17:12:30.721Z,0.50
2023-05-14T17:14:57.568Z,0.55
2023-05-14T17:17:24.329Z,0.40
2023-05-14T17:19:51.086Z,0.50
2023-05-14T17:22:17.829Z,0.70
2023-05-14T17:24:44.641Z,0.60
2023-05-14T17:27:11.410Z,0.60
2023-05-14T17:29:38.177Z,0.50
2023-05-14T17:32:05.365Z,0.43
2023-05-14T17:41:52.705Z,0.50
2023-05-14T17:44:19.448Z,0.40
2023-05-14T17:46:46.315Z,0.60
2023-05-14T17:49:13.107Z,0.57
2023-05-14T17:51:39.857Z,0.60
2023-05-14T17:54:06.652Z,0.50
2023-05-14T17:56:33.731Z,0.50
2023-05-14T18:01:27.270Z,0.60
2023-05-14T18:03:54.303Z,1.02
2023-05-14T18:08:47.958Z,0.43
2023-05-14T18:11:14.749Z,0.60
2023-05-14T18:13:41.515Z,0.40
2023-05-14T18:16:08.624Z,0.50
2023-05-14T18:23:29.233Z,0.65
2023-05-14T18:25:56.030Z,0.60
2023-05-14T18:28:22.904Z,0.47
2023-05-14T18:30:49.735Z,0.80
2023-05-14T18:33:16.603Z,0.60
2023-05-14T18:35:46.152Z,0.80
2023-05-14T18:38:13.644Z,0.50
2023-05-14T18:40:40.804Z,0.70
2023-05-14T18:43:07.563Z,0.70
2023-05-14T18:45:34.441Z,0.57
2023-05-14T18:48:01.276Z,0.60
2023-05-14T18:50:28.154Z,0.77
2023-05-14T18:52:54.917Z,0.68
2023-05-14T18:55:21.969Z,0.70
2023-05-14T18:57:48.932Z,0.70
2023-05-14T19:00:16.172Z,0.70
2023-05-14T19:07:40.644Z,0.80
2023-05-14T19:10:08.126Z,0.70
2023-05-14T19:12:34.962Z,0.90
2023-05-14T19:15:01.966Z,1.20
2023-05-14T19:17:29.328Z,0.82
2023-05-14T19:19:56.202Z,0.75
2023-05-14T19:22:23.036Z,0.90
2023-05-14T19:27:21.520Z,0.80
2023-05-14T19:29:48.263Z,0.80
2023-05-14T19:32:15.039Z,1.00
2023-05-14T19:34:41.850Z,0.60
2023-05-14T19:37:08.812Z,0.70
2023-05-14T19:39:35.562Z,0.80
2023-05-14T19:42:02.459Z,1.00
2023-05-14T19:44:29.299Z,0.82
2023-05-14T19:46:56.122Z,0.90
2023-05-14T19:49:23.036Z,0.70
2023-05-14T19:51:49.843Z,0.90
2023-05-14T19:54:16.614Z,0.70
2023-05-14T19:56:43.377Z,0.80
2023-05-14T19:59:10.202Z,0.70
2023-05-14T20:01:37.240Z,0.60
2023-05-14T20:04:04.223Z,0.80
2023-05-14T20:06:31.994Z,0.70
2023-05-14T20:08:58.987Z,0.85
2023-05-14T20:11:25.861Z,1.15
2023-05-14T20:13:52.708Z,1.00
2023-05-14T20:16:19.594Z,1.05
2023-05-14T20:18:46.493Z,0.90
2023-05-14T20:21:13.312Z,1.35
2023-05-14T20:23:40.759Z,1.02
2023-05-14T20:26:07.718Z,1.25
2023-05-14T20:28:34.548Z,1.05
2023-05-14T20:31:03.868Z,1.02
2023-05-14T20:33:30.948Z,1.15
2023-05-14T20:35:57.860Z,0.75
2023-05-14T20:38:25.773Z,1.27
2023-05-14T20:40:52.561Z,0.80
2023-05-14T20:43:19.396Z,1.30
2023-05-14T20:45:46.221Z,0.90
2023-05-14T20:48:16.071Z,1.02
2023-05-14T20:50:43.124Z,0.90
2023-05-14T20:53:09.958Z,0.90
2023-05-14T20:55:36.747Z,0.80
2023-05-14T20:58:03.590Z,0.98
2023-05-14T21:00:30.356Z,0.80
2023-05-14T21:02:57.416Z,1.13
2023-05-14T21:05:24.508Z,0.80
2023-05-14T21:07:51.465Z,1.10
2023-05-14T21:10:18.483Z,0.85
2023-05-14T21:12:45.355Z,1.15
2023-05-14T21:15:12.509Z,1.13
2023-05-14T21:17:39.353Z,1.10
2023-05-14T21:20:06.794Z,0.80
2023-05-14T21:25:00.294Z,1.10
2023-05-14T21:27:27.286Z,1.10
2023-05-14T21:29:54.149Z,0.95
2023-05-14T21:32:22.151Z,1.25
2023-05-14T21:34:49.143Z,0.77
2023-05-14T21:37:16.021Z,0.90
2023-05-14T21:39:42.864Z,1.23
2023-05-14T21:42:09.800Z,1.10
2023-05-14T21:44:36.601Z,1.02
2023-05-14T21:47:03.997Z,1.10
2023-05-14T21:51:57.512Z,1.20
2023-05-14T21:54:24.289Z,1.02
2023-05-14T21:56:51.131Z,1.10
2023-05-14T21:59:17.899Z,1.00
2023-05-14T22:04:14.531Z,1.02
2023-05-14T22:06:41.886Z,1.13
2023-05-14T22:09:11.256Z,0.90
2023-05-14T22:11:38.242Z,1.10
2023-05-14T22:14:04.998Z,0.98
2023-05-14T22:16:33.283Z,0.90
2023-05-14T22:19:01.022Z,1.08
2023-05-14T22:21:27.950Z,0.80
2023-05-14T22:23:54.793Z,1.15
2023-05-14T22:26:21.647Z,1.10
2023-05-14T22:28:49.552Z,0.90
2023-05-14T22:31:16.379Z,1.23
2023-05-14T22:33:43.142Z,1.02
2023-05-14T22:36:10.414Z,1.00
2023-05-14T22:38:37.243Z,0.90
2023-05-14T22:41:04.014Z,0.82
2023-05-14T22:43:30.819Z,1.10
2023-05-14T22:45:57.652Z,1.02
2023-05-14T22:48:24.414Z,1.13
2023-05-14T22:50:51.733Z,1.27
2023-05-14T22:53:18.525Z,1.25
2023-05-14T22:55:45.512Z,1.20
2023-05-14T22:58:12.296Z,1.08
2023-05-14T23:00:39.081Z,1.20
2023-05-14T23:03:05.854Z,1.17
2023-05-14T23:05:32.679Z,0.90
2023-05-14T23:07:59.450Z,1.23
2023-05-14T23:10:26.609Z,1.05
2023-05-14T23:12:53.338Z,0.90
2023-05-14T23:15:20.153Z,1.10
2023-05-14T23:17:47.270Z,1.10
2023-05-14T23:20:14.086Z,1.10
2023-05-14T23:22:40.918Z,1.05
2023-05-14T23:25:08.148Z,0.93
2023-05-14T23:27:35.314Z,0.88
2023-05-14T23:30:03.639Z,1.30
2023-05-14T23:32:30.421Z,1.00
2023-05-14T23:34:57.272Z,1.42
2023-05-14T23:37:24.295Z,0.80
2023-05-14T23:39:51.314Z,0.90
2023-05-14T23:42:18.127Z,0.98
2023-05-14T23:44:44.926Z,0.90
2023-05-14T23:47:12.325Z,0.90
2023-05-14T23:52:07.529Z,0.77
2023-05-14T23:54:34.377Z,0.95
2023-05-14T23:57:02.786Z,1.10
2023-05-14T23:59:29.514Z,0.98
